sensor_id;sensor_type;location;lat;lon;timestamp;P1;durP1;ratioP1;P2;durP2;ratioP2
78875;SDS011;68253;52.506;5.486;2024-02-28T00:01:49;31.92;;;13.02;;
78875;SDS011;68253;52.506;5.486;2024-02-28T00:04:18;31.15;;;13.13;;
78875;SDS011;68253;52.506;5.486;2024-02-28T00:06:45;29.80;;;12.60;;
78875;SDS011;68253;52.506;5.486;2024-02-28T00:09:14;29.17;;;13.23;;
78875;SDS011;68253;52.506;5.486;2024-02-28T00:11:42;29.10;;;11.73;;
78875;SDS011;68253;52.506;5.486;2024-02-28T00:14:10;30.08;;;12.45;;
78875;SDS011;68253;52.506;5.486;2024-02-28T00:16:42;30.17;;;13.52;;
78875;SDS011;68253;52.506;5.486;2024-02-28T00:19:12;32.42;;;13.77;;
78875;SDS011;68253;52.506;5.486;2024-02-28T00:21:38;33.88;;;15.05;;
78875;SDS011;68253;52.506;5.486;2024-02-28T00:24:06;29.77;;;12.55;;
78875;SDS011;68253;52.506;5.486;2024-02-28T00:26:32;30.25;;;12.55;;
78875;SDS011;68253;52.506;5.486;2024-02-28T00:28:58;26.23;;;11.43;;
78875;SDS011;68253;52.506;5.486;2024-02-28T00:31:25;28.35;;;11.98;;
78875;SDS011;68253;52.506;5.486;2024-02-28T00:33:51;28.13;;;11.75;;
78875;SDS011;68253;52.506;5.486;2024-02-28T00:36:17;27.88;;;12.30;;
78875;SDS011;68253;52.506;5.486;2024-02-28T00:38:44;27.15;;;11.95;;
78875;SDS011;68253;52.506;5.486;2024-02-28T00:41:10;26.48;;;11.30;;
78875;SDS011;68253;52.506;5.486;2024-02-28T00:43:36;28.35;;;11.93;;
78875;SDS011;68253;52.506;5.486;2024-02-28T00:46:02;28.77;;;12.25;;
78875;SDS011;68253;52.506;5.486;2024-02-28T00:48:29;27.52;;;10.77;;
78875;SDS011;68253;52.506;5.486;2024-02-28T00:50:55;28.35;;;11.73;;
78875;SDS011;68253;52.506;5.486;2024-02-28T00:53:21;26.98;;;11.63;;
78875;SDS011;68253;52.506;5.486;2024-02-28T00:55:47;26.67;;;11.13;;
78875;SDS011;68253;52.506;5.486;2024-02-28T00:58:13;29.75;;;12.82;;
78875;SDS011;68253;52.506;5.486;2024-02-28T01:00:40;26.40;;;11.05;;
78875;SDS011;68253;52.506;5.486;2024-02-28T01:03:06;28.98;;;12.30;;
78875;SDS011;68253;52.506;5.486;2024-02-28T01:05:34;29.92;;;12.00;;
78875;SDS011;68253;52.506;5.486;2024-02-28T01:08:01;26.95;;;11.65;;
78875;SDS011;68253;52.506;5.486;2024-02-28T01:10:27;31.40;;;12.43;;
78875;SDS011;68253;52.506;5.486;2024-02-28T01:12:53;28.33;;;11.45;;
78875;SDS011;68253;52.506;5.486;2024-02-28T01:15:19;28.25;;;12.32;;
78875;SDS011;68253;52.506;5.486;2024-02-28T01:17:45;27.45;;;11.70;;
78875;SDS011;68253;52.506;5.486;2024-02-28T01:20:11;27.25;;;10.45;;
78875;SDS011;68253;52.506;5.486;2024-02-28T01:22:37;27.77;;;11.57;;
78875;SDS011;68253;52.506;5.486;2024-02-28T01:25:03;28.83;;;12.35;;
78875;SDS011;68253;52.506;5.486;2024-02-28T01:27:30;27.65;;;12.90;;
78875;SDS011;68253;52.506;5.486;2024-02-28T01:29:56;27.98;;;11.48;;
78875;SDS011;68253;52.506;5.486;2024-02-28T01:32:22;30.95;;;12.25;;
78875;SDS011;68253;52.506;5.486;2024-02-28T01:34:51;30.33;;;12.68;;
78875;SDS011;68253;52.506;5.486;2024-02-28T01:37:17;29.95;;;11.90;;
78875;SDS011;68253;52.506;5.486;2024-02-28T01:39:43;27.10;;;11.43;;
78875;SDS011;68253;52.506;5.486;2024-02-28T01:42:09;28.67;;;11.15;;
78875;SDS011;68253;52.506;5.486;2024-02-28T01:44:37;30.00;;;11.77;;
78875;SDS011;68253;52.506;5.486;2024-02-28T01:47:08;26.73;;;10.93;;
78875;SDS011;68253;52.506;5.486;2024-02-28T01:49:35;33.08;;;13.95;;
78875;SDS011;68253;52.506;5.486;2024-02-28T01:52:01;30.88;;;11.68;;
78875;SDS011;68253;52.506;5.486;2024-02-28T01:54:29;27.60;;;10.82;;
78875;SDS011;68253;52.506;5.486;2024-02-28T01:56:55;26.90;;;11.20;;
78875;SDS011;68253;52.506;5.486;2024-02-28T01:59:22;31.00;;;12.25;;
78875;SDS011;68253;52.506;5.486;2024-02-28T02:01:50;29.20;;;11.73;;
78875;SDS011;68253;52.506;5.486;2024-02-28T02:04:16;31.05;;;12.88;;
78875;SDS011;68253;52.506;5.486;2024-02-28T02:06:42;32.03;;;13.10;;
78875;SDS011;68253;52.506;5.486;2024-02-28T02:09:10;27.95;;;12.02;;
78875;SDS011;68253;52.506;5.486;2024-02-28T02:11:37;27.38;;;11.05;;
78875;SDS011;68253;52.506;5.486;2024-02-28T02:14:04;31.88;;;13.18;;
78875;SDS011;68253;52.506;5.486;2024-02-28T02:16:30;29.15;;;12.38;;
78875;SDS011;68253;52.506;5.486;2024-02-28T02:18:56;28.25;;;11.32;;
78875;SDS011;68253;52.506;5.486;2024-02-28T02:21:23;26.83;;;11.35;;
78875;SDS011;68253;52.506;5.486;2024-02-28T02:23:56;32.15;;;12.88;;
78875;SDS011;68253;52.506;5.486;2024-02-28T02:26:22;29.00;;;11.40;;
78875;SDS011;68253;52.506;5.486;2024-02-28T02:28:48;26.42;;;10.38;;
78875;SDS011;68253;52.506;5.486;2024-02-28T02:31:14;28.77;;;12.13;;
78875;SDS011;68253;52.506;5.486;2024-02-28T02:33:40;26.10;;;9.85;;
78875;SDS011;68253;52.506;5.486;2024-02-28T02:36:07;31.42;;;13.00;;
78875;SDS011;68253;52.506;5.486;2024-02-28T02:38:33;28.10;;;11.95;;
78875;SDS011;68253;52.506;5.486;2024-02-28T02:40:59;33.90;;;13.57;;
78875;SDS011;68253;52.506;5.486;2024-02-28T02:43:25;26.58;;;10.85;;
78875;SDS011;68253;52.506;5.486;2024-02-28T02:45:51;30.38;;;11.90;;
78875;SDS011;68253;52.506;5.486;2024-02-28T02:48:17;27.00;;;11.27;;
78875;SDS011;68253;52.506;5.486;2024-02-28T02:50:44;25.80;;;10.63;;
78875;SDS011;68253;52.506;5.486;2024-02-28T02:53:10;26.92;;;11.05;;
78875;SDS011;68253;52.506;5.486;2024-02-28T02:55:36;26.67;;;10.73;;
78875;SDS011;68253;52.506;5.486;2024-02-28T02:58:03;25.60;;;10.85;;
78875;SDS011;68253;52.506;5.486;2024-02-28T03:00:29;27.73;;;11.45;;
78875;SDS011;68253;52.506;5.486;2024-02-28T03:02:55;28.60;;;11.52;;
78875;SDS011;68253;52.506;5.486;2024-02-28T03:05:22;28.88;;;11.70;;
78875;SDS011;68253;52.506;5.486;2024-02-28T03:07:48;28.63;;;12.52;;
78875;SDS011;68253;52.506;5.486;2024-02-28T03:10:14;30.73;;;12.75;;
78875;SDS011;68253;52.506;5.486;2024-02-28T03:12:40;24.98;;;10.38;;
78875;SDS011;68253;52.506;5.486;2024-02-28T03:15:06;26.05;;;10.73;;
78875;SDS011;68253;52.506;5.486;2024-02-28T03:17:33;27.90;;;11.45;;
78875;SDS011;68253;52.506;5.486;2024-02-28T03:19:59;30.58;;;12.82;;
78875;SDS011;68253;52.506;5.486;2024-02-28T03:22:25;25.05;;;10.80;;
78875;SDS011;68253;52.506;5.486;2024-02-28T03:24:51;26.52;;;10.10;;
78875;SDS011;68253;52.506;5.486;2024-02-28T03:27:17;27.98;;;11.30;;
78875;SDS011;68253;52.506;5.486;2024-02-28T03:29:43;25.83;;;10.13;;
78875;SDS011;68253;52.506;5.486;2024-02-28T03:32:09;28.80;;;12.45;;
78875;SDS011;68253;52.506;5.486;2024-02-28T03:34:35;31.63;;;11.43;;
78875;SDS011;68253;52.506;5.486;2024-02-28T03:37:01;25.08;;;10.30;;
78875;SDS011;68253;52.506;5.486;2024-02-28T03:39:28;27.13;;;11.23;;
78875;SDS011;68253;52.506;5.486;2024-02-28T03:41:54;29.23;;;11.98;;
78875;SDS011;68253;52.506;5.486;2024-02-28T03:44:20;23.60;;;10.30;;
78875;SDS011;68253;52.506;5.486;2024-02-28T03:46:47;22.20;;;10.05;;
78875;SDS011;68253;52.506;5.486;2024-02-28T03:49:13;20.13;;;8.52;;
78875;SDS011;68253;52.506;5.486;2024-02-28T03:51:39;20.05;;;8.60;;
78875;SDS011;68253;52.506;5.486;2024-02-28T03:54:06;22.17;;;8.60;;
78875;SDS011;68253;52.506;5.486;2024-02-28T03:56:33;22.30;;;8.60;;
78875;SDS011;68253;52.506;5.486;2024-02-28T03:59:00;25.23;;;10.73;;
78875;SDS011;68253;52.506;5.486;2024-02-28T04:01:27;25.35;;;10.02;;
78875;SDS011;68253;52.506;5.486;2024-02-28T04:03:53;22.52;;;8.43;;
78875;SDS011;68253;52.506;5.486;2024-02-28T04:06:19;23.40;;;9.82;;
78875;SDS011;68253;52.506;5.486;2024-02-28T04:08:45;27.42;;;11.10;;
78875;SDS011;68253;52.506;5.486;2024-02-28T04:11:11;21.25;;;9.00;;
78875;SDS011;68253;52.506;5.486;2024-02-28T04:13:37;23.15;;;9.30;;
78875;SDS011;68253;52.506;5.486;2024-02-28T04:16:03;22.50;;;9.40;;
78875;SDS011;68253;52.506;5.486;2024-02-28T04:18:29;24.00;;;9.57;;
78875;SDS011;68253;52.506;5.486;2024-02-28T04:20:56;22.85;;;9.98;;
78875;SDS011;68253;52.506;5.486;2024-02-28T04:23:22;21.73;;;9.50;;
78875;SDS011;68253;52.506;5.486;2024-02-28T04:25:48;23.52;;;8.73;;
78875;SDS011;68253;52.506;5.486;2024-02-28T04:28:14;19.67;;;8.35;;
78875;SDS011;68253;52.506;5.486;2024-02-28T04:30:40;19.80;;;8.73;;
78875;SDS011;68253;52.506;5.486;2024-02-28T04:33:06;19.90;;;8.63;;
78875;SDS011;68253;52.506;5.486;2024-02-28T04:35:32;19.17;;;8.63;;
78875;SDS011;68253;52.506;5.486;2024-02-28T04:37:59;19.85;;;8.25;;
78875;SDS011;68253;52.506;5.486;2024-02-28T04:40:25;21.48;;;8.07;;
78875;SDS011;68253;52.506;5.486;2024-02-28T04:42:51;18.77;;;7.47;;
78875;SDS011;68253;52.506;5.486;2024-02-28T04:45:17;19.02;;;7.95;;
78875;SDS011;68253;52.506;5.486;2024-02-28T04:47:43;19.17;;;7.82;;
78875;SDS011;68253;52.506;5.486;2024-02-28T04:50:10;17.50;;;7.68;;
78875;SDS011;68253;52.506;5.486;2024-02-28T04:52:36;18.83;;;7.43;;
78875;SDS011;68253;52.506;5.486;2024-02-28T04:55:03;18.92;;;8.43;;
78875;SDS011;68253;52.506;5.486;2024-02-28T04:57:29;18.27;;;8.27;;
78875;SDS011;68253;52.506;5.486;2024-02-28T04:59:55;21.08;;;9.23;;
78875;SDS011;68253;52.506;5.486;2024-02-28T05:02:21;18.67;;;7.90;;
78875;SDS011;68253;52.506;5.486;2024-02-28T05:04:47;17.88;;;7.95;;
78875;SDS011;68253;52.506;5.486;2024-02-28T05:07:14;18.02;;;8.05;;
78875;SDS011;68253;52.506;5.486;2024-02-28T05:09:40;20.05;;;8.27;;
78875;SDS011;68253;52.506;5.486;2024-02-28T05:12:06;16.30;;;7.03;;
78875;SDS011;68253;52.506;5.486;2024-02-28T05:14:33;17.83;;;7.65;;
78875;SDS011;68253;52.506;5.486;2024-02-28T05:16:59;17.50;;;8.07;;
78875;SDS011;68253;52.506;5.486;2024-02-28T05:19:25;20.77;;;9.05;;
78875;SDS011;68253;52.506;5.486;2024-02-28T05:21:51;17.85;;;7.85;;
78875;SDS011;68253;52.506;5.486;2024-02-28T05:24:18;17.50;;;7.63;;
78875;SDS011;68253;52.506;5.486;2024-02-28T05:26:44;14.25;;;7.10;;
78875;SDS011;68253;52.506;5.486;2024-02-28T05:29:10;16.17;;;7.43;;
78875;SDS011;68253;52.506;5.486;2024-02-28T05:31:36;18.08;;;7.65;;
78875;SDS011;68253;52.506;5.486;2024-02-28T05:34:03;15.70;;;7.18;;
78875;SDS011;68253;52.506;5.486;2024-02-28T05:36:30;18.10;;;8.32;;
78875;SDS011;68253;52.506;5.486;2024-02-28T05:38:57;16.70;;;8.35;;
78875;SDS011;68253;52.506;5.486;2024-02-28T05:41:25;17.02;;;8.32;;
78875;SDS011;68253;52.506;5.486;2024-02-28T05:43:54;18.90;;;8.93;;
78875;SDS011;68253;52.506;5.486;2024-02-28T05:46:20;18.70;;;9.15;;
78875;SDS011;68253;52.506;5.486;2024-02-28T05:48:47;17.70;;;8.55;;
78875;SDS011;68253;52.506;5.486;2024-02-28T05:51:13;17.02;;;8.05;;
78875;SDS011;68253;52.506;5.486;2024-02-28T05:53:40;20.63;;;9.30;;
78875;SDS011;68253;52.506;5.486;2024-02-28T05:56:08;17.55;;;8.13;;
78875;SDS011;68253;52.506;5.486;2024-02-28T05:58:46;17.05;;;8.00;;
78875;SDS011;68253;52.506;5.486;2024-02-28T06:01:16;16.75;;;8.13;;
78875;SDS011;68253;52.506;5.486;2024-02-28T06:03:44;17.80;;;8.18;;
78875;SDS011;68253;52.506;5.486;2024-02-28T06:06:11;19.88;;;9.35;;
78875;SDS011;68253;52.506;5.486;2024-02-28T06:08:38;18.73;;;9.10;;
78875;SDS011;68253;52.506;5.486;2024-02-28T06:11:06;17.90;;;9.27;;
78875;SDS011;68253;52.506;5.486;2024-02-28T06:13:33;17.83;;;8.80;;
78875;SDS011;68253;52.506;5.486;2024-02-28T06:15:59;16.67;;;8.05;;
78875;SDS011;68253;52.506;5.486;2024-02-28T06:18:25;18.35;;;8.95;;
78875;SDS011;68253;52.506;5.486;2024-02-28T06:20:53;17.40;;;8.20;;
78875;SDS011;68253;52.506;5.486;2024-02-28T06:23:20;17.08;;;8.18;;
78875;SDS011;68253;52.506;5.486;2024-02-28T06:25:49;18.15;;;9.07;;
78875;SDS011;68253;52.506;5.486;2024-02-28T06:28:16;19.30;;;8.63;;
78875;SDS011;68253;52.506;5.486;2024-02-28T06:30:43;17.10;;;7.97;;
78875;SDS011;68253;52.506;5.486;2024-02-28T06:33:14;16.50;;;8.48;;
78875;SDS011;68253;52.506;5.486;2024-02-28T06:35:40;16.20;;;8.45;;
78875;SDS011;68253;52.506;5.486;2024-02-28T06:38:07;17.20;;;8.95;;
78875;SDS011;68253;52.506;5.486;2024-02-28T06:40:33;19.27;;;8.68;;
78875;SDS011;68253;52.506;5.486;2024-02-28T06:43:00;18.55;;;7.82;;
78875;SDS011;68253;52.506;5.486;2024-02-28T06:45:27;17.20;;;8.70;;
78875;SDS011;68253;52.506;5.486;2024-02-28T06:47:53;17.02;;;8.40;;
78875;SDS011;68253;52.506;5.486;2024-02-28T06:50:19;16.35;;;8.35;;
78875;SDS011;68253;52.506;5.486;2024-02-28T06:52:45;17.80;;;8.57;;
78875;SDS011;68253;52.506;5.486;2024-02-28T06:55:11;18.23;;;8.27;;
78875;SDS011;68253;52.506;5.486;2024-02-28T06:57:40;17.95;;;8.30;;
78875;SDS011;68253;52.506;5.486;2024-02-28T07:00:07;19.10;;;9.77;;
78875;SDS011;68253;52.506;5.486;2024-02-28T07:02:35;18.80;;;8.70;;
78875;SDS011;68253;52.506;5.486;2024-02-28T07:05:02;16.60;;;7.38;;
78875;SDS011;68253;52.506;5.486;2024-02-28T07:07:33;20.05;;;9.32;;
78875;SDS011;68253;52.506;5.486;2024-02-28T07:09:59;16.38;;;8.35;;
78875;SDS011;68253;52.506;5.486;2024-02-28T07:12:25;17.38;;;8.73;;
78875;SDS011;68253;52.506;5.486;2024-02-28T07:14:52;16.42;;;8.40;;
78875;SDS011;68253;52.506;5.486;2024-02-28T07:17:18;16.92;;;8.90;;
78875;SDS011;68253;52.506;5.486;2024-02-28T07:19:44;20.85;;;10.25;;
78875;SDS011;68253;52.506;5.486;2024-02-28T07:22:10;19.13;;;8.57;;
78875;SDS011;68253;52.506;5.486;2024-02-28T07:24:36;17.60;;;8.65;;
78875;SDS011;68253;52.506;5.486;2024-02-28T07:27:03;19.63;;;10.55;;
78875;SDS011;68253;52.506;5.486;2024-02-28T07:29:29;17.38;;;8.88;;
78875;SDS011;68253;52.506;5.486;2024-02-28T07:31:55;19.67;;;8.82;;
78875;SDS011;68253;52.506;5.486;2024-02-28T07:34:21;16.80;;;8.18;;
78875;SDS011;68253;52.506;5.486;2024-02-28T07:36:47;16.70;;;8.05;;
78875;SDS011;68253;52.506;5.486;2024-02-28T07:39:14;19.27;;;8.15;;
78875;SDS011;68253;52.506;5.486;2024-02-28T07:41:40;17.05;;;7.90;;
78875;SDS011;68253;52.506;5.486;2024-02-28T07:44:10;17.25;;;8.85;;
78875;SDS011;68253;52.506;5.486;2024-02-28T07:49:02;17.67;;;8.63;;
78875;SDS011;68253;52.506;5.486;2024-02-28T07:51:28;19.20;;;8.98;;
78875;SDS011;68253;52.506;5.486;2024-02-28T07:53:55;19.38;;;9.60;;
78875;SDS011;68253;52.506;5.486;2024-02-28T07:56:21;17.95;;;8.13;;
78875;SDS011;68253;52.506;5.486;2024-02-28T07:58:47;21.58;;;9.93;;
78875;SDS011;68253;52.506;5.486;2024-02-28T08:01:14;19.10;;;9.45;;
78875;SDS011;68253;52.506;5.486;2024-02-28T08:03:41;16.65;;;8.88;;
78875;SDS011;68253;52.506;5.486;2024-02-28T08:06:07;20.80;;;11.27;;
78875;SDS011;68253;52.506;5.486;2024-02-28T08:08:36;18.75;;;8.85;;
78875;SDS011;68253;52.506;5.486;2024-02-28T08:11:02;17.88;;;9.57;;
78875;SDS011;68253;52.506;5.486;2024-02-28T08:13:29;21.17;;;9.95;;
78875;SDS011;68253;52.506;5.486;2024-02-28T08:15:55;19.38;;;9.13;;
78875;SDS011;68253;52.506;5.486;2024-02-28T08:18:21;18.75;;;10.40;;
78875;SDS011;68253;52.506;5.486;2024-02-28T08:20:47;16.40;;;8.82;;
78875;SDS011;68253;52.506;5.486;2024-02-28T08:23:15;21.60;;;10.55;;
78875;SDS011;68253;52.506;5.486;2024-02-28T08:25:41;21.00;;;10.82;;
78875;SDS011;68253;52.506;5.486;2024-02-28T08:28:07;18.42;;;9.05;;
78875;SDS011;68253;52.506;5.486;2024-02-28T08:30:33;19.27;;;8.80;;
78875;SDS011;68253;52.506;5.486;2024-02-28T08:32:59;18.25;;;9.95;;
78875;SDS011;68253;52.506;5.486;2024-02-28T08:35:25;18.23;;;9.52;;
78875;SDS011;68253;52.506;5.486;2024-02-28T08:37:52;21.63;;;10.90;;
78875;SDS011;68253;52.506;5.486;2024-02-28T08:40:18;21.08;;;10.77;;
78875;SDS011;68253;52.506;5.486;2024-02-28T08:42:44;21.02;;;10.10;;
78875;SDS011;68253;52.506;5.486;2024-02-28T08:45:11;21.40;;;10.98;;
78875;SDS011;68253;52.506;5.486;2024-02-28T08:47:37;21.25;;;9.77;;
78875;SDS011;68253;52.506;5.486;2024-02-28T08:50:04;22.60;;;11.27;;
78875;SDS011;68253;52.506;5.486;2024-02-28T08:52:30;19.85;;;8.95;;
78875;SDS011;68253;52.506;5.486;2024-02-28T08:54:56;18.23;;;9.25;;
78875;SDS011;68253;52.506;5.486;2024-02-28T08:57:22;19.02;;;9.65;;
78875;SDS011;68253;52.506;5.486;2024-02-28T08:59:50;19.73;;;9.40;;
78875;SDS011;68253;52.506;5.486;2024-02-28T09:02:16;19.15;;;9.23;;
78875;SDS011;68253;52.506;5.486;2024-02-28T09:04:42;19.42;;;10.07;;
78875;SDS011;68253;52.506;5.486;2024-02-28T09:07:08;18.85;;;10.13;;
78875;SDS011;68253;52.506;5.486;2024-02-28T09:09:34;20.42;;;10.20;;
78875;SDS011;68253;52.506;5.486;2024-02-28T09:12:03;19.30;;;9.57;;
78875;SDS011;68253;52.506;5.486;2024-02-28T09:14:29;20.50;;;10.65;;
78875;SDS011;68253;52.506;5.486;2024-02-28T09:16:56;21.48;;;12.05;;
78875;SDS011;68253;52.506;5.486;2024-02-28T09:19:31;18.58;;;10.13;;
78875;SDS011;68253;52.506;5.486;2024-02-28T09:21:58;18.98;;;9.35;;
78875;SDS011;68253;52.506;5.486;2024-02-28T09:24:24;19.00;;;9.20;;
78875;SDS011;68253;52.506;5.486;2024-02-28T09:26:51;20.40;;;10.48;;
78875;SDS011;68253;52.506;5.486;2024-02-28T09:29:18;22.33;;;10.63;;
78875;SDS011;68253;52.506;5.486;2024-02-28T09:31:44;18.70;;;10.15;;
78875;SDS011;68253;52.506;5.486;2024-02-28T09:34:10;20.52;;;10.13;;
78875;SDS011;68253;52.506;5.486;2024-02-28T09:36:40;19.35;;;10.45;;
78875;SDS011;68253;52.506;5.486;2024-02-28T09:39:11;19.60;;;10.45;;
78875;SDS011;68253;52.506;5.486;2024-02-28T09:41:43;24.05;;;10.98;;
78875;SDS011;68253;52.506;5.486;2024-02-28T09:44:09;22.42;;;10.95;;
78875;SDS011;68253;52.506;5.486;2024-02-28T09:46:35;21.48;;;11.00;;
78875;SDS011;68253;52.506;5.486;2024-02-28T09:49:03;19.02;;;10.07;;
78875;SDS011;68253;52.506;5.486;2024-02-28T09:51:34;18.25;;;9.98;;
78875;SDS011;68253;52.506;5.486;2024-02-28T09:54:01;19.30;;;10.02;;
78875;SDS011;68253;52.506;5.486;2024-02-28T09:56:29;21.23;;;10.57;;
78875;SDS011;68253;52.506;5.486;2024-02-28T09:58:56;19.50;;;11.05;;
78875;SDS011;68253;52.506;5.486;2024-02-28T10:01:25;19.75;;;10.00;;
78875;SDS011;68253;52.506;5.486;2024-02-28T10:03:52;18.05;;;10.43;;
78875;SDS011;68253;52.506;5.486;2024-02-28T10:06:19;20.85;;;10.77;;
78875;SDS011;68253;52.506;5.486;2024-02-28T10:08:45;18.55;;;9.88;;
78875;SDS011;68253;52.506;5.486;2024-02-28T10:11:19;16.02;;;9.43;;
78875;SDS011;68253;52.506;5.486;2024-02-28T10:13:49;22.65;;;10.35;;
78875;SDS011;68253;52.506;5.486;2024-02-28T10:16:17;20.10;;;9.90;;
78875;SDS011;68253;52.506;5.486;2024-02-28T10:18:44;18.50;;;10.77;;
78875;SDS011;68253;52.506;5.486;2024-02-28T10:21:11;20.30;;;10.15;;
78875;SDS011;68253;52.506;5.486;2024-02-28T10:23:39;19.08;;;11.02;;
78875;SDS011;68253;52.506;5.486;2024-02-28T10:26:08;18.02;;;10.43;;
78875;SDS011;68253;52.506;5.486;2024-02-28T10:28:38;19.17;;;9.55;;
78875;SDS011;68253;52.506;5.486;2024-02-28T10:31:09;20.25;;;10.45;;
78875;SDS011;68253;52.506;5.486;2024-02-28T10:33:36;19.27;;;10.25;;
78875;SDS011;68253;52.506;5.486;2024-02-28T10:36:02;18.17;;;10.20;;
78875;SDS011;68253;52.506;5.486;2024-02-28T10:38:30;16.48;;;9.32;;
78875;SDS011;68253;52.506;5.486;2024-02-28T10:41:02;17.50;;;9.23;;
78875;SDS011;68253;52.506;5.486;2024-02-28T10:43:29;20.48;;;10.50;;
78875;SDS011;68253;52.506;5.486;2024-02-28T10:45:59;18.45;;;10.10;;
78875;SDS011;68253;52.506;5.486;2024-02-28T10:50:52;19.58;;;8.73;;
78875;SDS011;68253;52.506;5.486;2024-02-28T10:53:36;16.15;;;9.15;;
78875;SDS011;68253;52.506;5.486;2024-02-28T10:56:09;17.35;;;9.52;;
78875;SDS011;68253;52.506;5.486;2024-02-28T10:58:39;18.88;;;10.30;;
78875;SDS011;68253;52.506;5.486;2024-02-28T11:01:15;18.27;;;9.15;;
78875;SDS011;68253;52.506;5.486;2024-02-28T11:03:42;18.60;;;10.65;;
78875;SDS011;68253;52.506;5.486;2024-02-28T11:06:17;18.60;;;9.90;;
78875;SDS011;68253;52.506;5.486;2024-02-28T11:08:47;18.33;;;10.45;;
78875;SDS011;68253;52.506;5.486;2024-02-28T11:11:14;17.35;;;9.63;;
78875;SDS011;68253;52.506;5.486;2024-02-28T11:13:55;16.10;;;9.30;;
78875;SDS011;68253;52.506;5.486;2024-02-28T11:16:26;16.98;;;9.55;;
78875;SDS011;68253;52.506;5.486;2024-02-28T11:18:56;16.65;;;9.15;;
78875;SDS011;68253;52.506;5.486;2024-02-28T11:21:22;21.02;;;10.30;;
78875;SDS011;68253;52.506;5.486;2024-02-28T11:23:56;18.23;;;9.68;;
78875;SDS011;68253;52.506;5.486;2024-02-28T11:26:24;19.08;;;10.25;;
78875;SDS011;68253;52.506;5.486;2024-02-28T11:28:50;14.20;;;7.78;;
78875;SDS011;68253;52.506;5.486;2024-02-28T11:31:17;16.65;;;9.05;;
78875;SDS011;68253;52.506;5.486;2024-02-28T11:33:44;16.73;;;9.20;;
78875;SDS011;68253;52.506;5.486;2024-02-28T11:36:13;21.15;;;9.82;;
78875;SDS011;68253;52.506;5.486;2024-02-28T11:38:40;18.13;;;9.10;;
78875;SDS011;68253;52.506;5.486;2024-02-28T11:41:07;17.73;;;10.27;;
78875;SDS011;68253;52.506;5.486;2024-02-28T11:43:33;14.05;;;7.82;;
78875;SDS011;68253;52.506;5.486;2024-02-28T11:46:08;16.35;;;9.95;;
78875;SDS011;68253;52.506;5.486;2024-02-28T11:48:38;16.85;;;10.05;;
78875;SDS011;68253;52.506;5.486;2024-02-28T11:51:05;16.00;;;8.15;;
78875;SDS011;68253;52.506;5.486;2024-02-28T11:53:32;17.52;;;9.02;;
78875;SDS011;68253;52.506;5.486;2024-02-28T11:55:58;19.98;;;9.05;;
78875;SDS011;68253;52.506;5.486;2024-02-28T11:58:24;14.02;;;8.43;;
78875;SDS011;68253;52.506;5.486;2024-02-28T12:00:51;15.30;;;9.00;;
78875;SDS011;68253;52.506;5.486;2024-02-28T12:03:21;14.50;;;7.75;;
78875;SDS011;68253;52.506;5.486;2024-02-28T12:05:51;15.50;;;7.43;;
78875;SDS011;68253;52.506;5.486;2024-02-28T12:08:18;15.32;;;7.85;;
78875;SDS011;68253;52.506;5.486;2024-02-28T12:10:45;15.93;;;9.25;;
78875;SDS011;68253;52.506;5.486;2024-02-28T12:13:15;17.38;;;9.45;;
78875;SDS011;68253;52.506;5.486;2024-02-28T12:15:45;17.33;;;9.35;;
78875;SDS011;68253;52.506;5.486;2024-02-28T12:18:14;19.15;;;10.48;;
78875;SDS011;68253;52.506;5.486;2024-02-28T12:20:41;16.63;;;9.80;;
78875;SDS011;68253;52.506;5.486;2024-02-28T12:23:07;17.83;;;9.38;;
78875;SDS011;68253;52.506;5.486;2024-02-28T12:25:33;17.33;;;9.68;;
78875;SDS011;68253;52.506;5.486;2024-02-28T12:28:00;16.88;;;9.73;;
78875;SDS011;68253;52.506;5.486;2024-02-28T12:30:27;16.15;;;9.20;;
78875;SDS011;68253;52.506;5.486;2024-02-28T12:32:53;18.55;;;9.00;;
78875;SDS011;68253;52.506;5.486;2024-02-28T12:35:19;15.68;;;8.57;;
78875;SDS011;68253;52.506;5.486;2024-02-28T12:37:46;14.65;;;8.93;;
78875;SDS011;68253;52.506;5.486;2024-02-28T12:40:14;14.25;;;7.75;;
78875;SDS011;68253;52.506;5.486;2024-02-28T12:42:42;16.52;;;8.60;;
78875;SDS011;68253;52.506;5.486;2024-02-28T12:45:08;16.70;;;8.90;;
78875;SDS011;68253;52.506;5.486;2024-02-28T12:47:34;15.85;;;8.45;;
78875;SDS011;68253;52.506;5.486;2024-02-28T12:50:00;17.52;;;8.38;;
78875;SDS011;68253;52.506;5.486;2024-02-28T12:52:27;18.48;;;9.38;;
78875;SDS011;68253;52.506;5.486;2024-02-28T12:54:53;18.50;;;8.95;;
78875;SDS011;68253;52.506;5.486;2024-02-28T12:57:19;18.08;;;9.13;;
78875;SDS011;68253;52.506;5.486;2024-02-28T12:59:45;17.95;;;9.10;;
78875;SDS011;68253;52.506;5.486;2024-02-28T13:02:11;18.27;;;9.55;;
78875;SDS011;68253;52.506;5.486;2024-02-28T13:04:37;17.75;;;9.20;;
78875;SDS011;68253;52.506;5.486;2024-02-28T13:07:04;17.02;;;9.38;;
78875;SDS011;68253;52.506;5.486;2024-02-28T13:09:30;19.90;;;9.30;;
78875;SDS011;68253;52.506;5.486;2024-02-28T13:11:57;18.70;;;9.48;;
78875;SDS011;68253;52.506;5.486;2024-02-28T13:14:23;17.48;;;9.43;;
78875;SDS011;68253;52.506;5.486;2024-02-28T13:16:49;15.88;;;8.55;;
78875;SDS011;68253;52.506;5.486;2024-02-28T13:19:18;17.77;;;9.60;;
78875;SDS011;68253;52.506;5.486;2024-02-28T13:21:46;17.33;;;9.57;;
78875;SDS011;68253;52.506;5.486;2024-02-28T13:24:13;20.00;;;9.35;;
78875;SDS011;68253;52.506;5.486;2024-02-28T13:26:40;16.60;;;9.07;;
78875;SDS011;68253;52.506;5.486;2024-02-28T13:29:06;16.55;;;8.80;;
78875;SDS011;68253;52.506;5.486;2024-02-28T13:31:33;18.10;;;9.70;;
78875;SDS011;68253;52.506;5.486;2024-02-28T13:34:00;18.13;;;10.40;;
78875;SDS011;68253;52.506;5.486;2024-02-28T13:36:28;19.88;;;10.75;;
78875;SDS011;68253;52.506;5.486;2024-02-28T13:38:57;22.27;;;10.60;;
78875;SDS011;68253;52.506;5.486;2024-02-28T13:41:24;18.08;;;10.38;;
78875;SDS011;68253;52.506;5.486;2024-02-28T13:43:50;20.15;;;10.32;;
78875;SDS011;68253;52.506;5.486;2024-02-28T13:46:16;19.35;;;10.15;;
78875;SDS011;68253;52.506;5.486;2024-02-28T13:48:44;17.63;;;9.70;;
78875;SDS011;68253;52.506;5.486;2024-02-28T13:51:10;17.92;;;10.35;;
78875;SDS011;68253;52.506;5.486;2024-02-28T13:53:37;21.02;;;11.50;;
78875;SDS011;68253;52.506;5.486;2024-02-28T13:56:03;21.25;;;11.82;;
78875;SDS011;68253;52.506;5.486;2024-02-28T13:58:31;19.08;;;10.07;;
78875;SDS011;68253;52.506;5.486;2024-02-28T14:00:57;15.57;;;8.65;;
78875;SDS011;68253;52.506;5.486;2024-02-28T14:03:25;18.40;;;10.18;;
78875;SDS011;68253;52.506;5.486;2024-02-28T14:05:52;16.27;;;8.02;;
78875;SDS011;68253;52.506;5.486;2024-02-28T14:08:18;19.15;;;10.48;;
78875;SDS011;68253;52.506;5.486;2024-02-28T14:10:44;17.92;;;9.00;;
78875;SDS011;68253;52.506;5.486;2024-02-28T14:13:10;19.73;;;9.45;;
78875;SDS011;68253;52.506;5.486;2024-02-28T14:15:37;18.55;;;9.82;;
78875;SDS011;68253;52.506;5.486;2024-02-28T14:18:04;19.50;;;10.73;;
78875;SDS011;68253;52.506;5.486;2024-02-28T14:20:30;17.85;;;9.05;;
78875;SDS011;68253;52.506;5.486;2024-02-28T14:22:56;17.73;;;8.80;;
78875;SDS011;68253;52.506;5.486;2024-02-28T14:25:23;17.77;;;10.00;;
78875;SDS011;68253;52.506;5.486;2024-02-28T14:27:50;18.55;;;9.15;;
78875;SDS011;68253;52.506;5.486;2024-02-28T14:30:16;17.35;;;9.35;;
78875;SDS011;68253;52.506;5.486;2024-02-28T14:32:43;18.90;;;9.43;;